createdAt,value
2022-09-10T00:02:34.176Z,8.63
2022-09-10T00:06:16.497Z,12.35
2022-09-10T00:10:19.982Z,9.68
2022-09-10T00:14:03.576Z,8.20
2022-09-10T00:17:45.299Z,9.13
2022-09-10T00:22:23.390Z,6.47
2022-09-10T00:26:16.750Z,7.05
2022-09-10T00:30:01.968Z,8.00
2022-09-10T00:33:43.976Z,8.93
2022-09-10T00:37:25.679Z,9.05
2022-09-10T00:41:27.466Z,7.22
2022-09-10T00:45:26.327Z,8.20
2022-09-10T00:49:32.036Z,9.10
2022-09-10T00:53:16.050Z,7.43
2022-09-10T00:57:00.051Z,7.68
2022-09-10T01:00:42.182Z,7.05
2022-09-10T01:04:23.995Z,7.47
2022-09-10T01:08:12.359Z,7.85
2022-09-10T01:12:16.004Z,9.35
2022-09-10T01:16:19.465Z,10.07
2022-09-10T01:20:24.908Z,7.57
2022-09-10T01:24:28.959Z,7.65
2022-09-10T01:32:01.912Z,8.10
2022-09-10T01:35:56.326Z,7.30
2022-09-10T01:39:39.287Z,6.47
2022-09-10T01:43:22.603Z,6.50
2022-09-10T01:47:13.023Z,4.38
2022-09-10T01:51:08.879Z,4.68
2022-09-10T01:54:56.453Z,10.57
2022-09-10T01:58:40.623Z,7.75
2022-09-10T02:02:31.011Z,10.70
2022-09-10T02:06:15.010Z,11.10
2022-09-10T02:10:53.147Z,8.80
2022-09-10T02:14:34.835Z,8.05
2022-09-10T02:18:16.577Z,8.05
2022-09-10T02:22:17.416Z,5.55
2022-09-10T02:25:59.153Z,5.70
2022-09-10T02:29:43.062Z,7.55
2022-09-10T02:33:24.974Z,6.15
2022-09-10T02:37:06.694Z,7.25
2022-09-10T02:41:09.867Z,5.80
2022-09-10T02:44:51.567Z,5.90
2022-09-10T02:48:33.358Z,7.60
2022-09-10T02:52:35.063Z,4.88
2022-09-10T02:56:17.823Z,8.32
2022-09-10T03:00:01.651Z,7.60
2022-09-10T03:03:43.440Z,8.50
2022-09-10T03:07:25.162Z,7.13
2022-09-10T03:11:13.731Z,6.38
2022-09-10T03:14:56.261Z,5.88
2022-09-10T03:18:38.039Z,6.97
2022-09-10T03:22:22.074Z,5.15
2022-09-10T03:26:04.456Z,7.25
2022-09-10T03:29:47.478Z,7.28
2022-09-10T03:33:29.184Z,5.25
2022-09-10T03:37:10.875Z,5.78
2022-09-10T03:41:49.042Z,9.75
2022-09-10T03:45:30.930Z,8.48
2022-09-10T03:49:33.635Z,8.48
2022-09-10T03:53:15.557Z,7.35
2022-09-10T03:56:57.253Z,7.38
2022-09-10T04:00:40.534Z,8.73
2022-09-10T04:04:22.347Z,7.72
2022-09-10T04:08:04.726Z,7.45
2022-09-10T04:12:05.362Z,9.02
2022-09-10T04:15:47.103Z,8.35
2022-09-10T04:20:25.179Z,9.40
2022-09-10T04:24:09.638Z,4.72
2022-09-10T04:27:51.406Z,5.32
2022-09-10T04:31:33.296Z,7.53
2022-09-10T04:35:15.486Z,4.80
2022-09-10T04:38:58.152Z,8.38
2022-09-10T04:42:39.865Z,8.35
2022-09-10T04:46:21.587Z,6.57
2022-09-10T04:50:09.138Z,5.75
2022-09-10T04:53:50.842Z,5.68
2022-09-10T04:57:32.608Z,4.93
2022-09-10T05:01:15.442Z,7.32
2022-09-10T05:04:57.162Z,7.60
2022-09-10T05:08:39.013Z,6.35
2022-09-10T05:12:21.259Z,7.15
2022-09-10T05:16:02.965Z,7.68
2022-09-10T05:19:47.776Z,7.90
2022-09-10T05:23:29.482Z,7.05
2022-09-10T05:27:11.182Z,8.48
2022-09-10T05:30:54.131Z,6.68
2022-09-10T05:34:36.011Z,9.80
2022-09-10T05:38:17.895Z,7.05
2022-09-10T05:42:38.691Z,5.65
2022-09-10T05:46:20.414Z,5.88
2022-09-10T05:50:23.279Z,6.07
2022-09-10T05:54:05.149Z,8.20
2022-09-10T05:57:46.844Z,9.02
2022-09-10T06:01:32.079Z,6.32
2022-09-10T06:05:13.847Z,6.40
2022-09-10T06:08:55.979Z,7.28
2022-09-10T06:12:45.974Z,6.45
2022-09-10T06:16:27.858Z,9.07
2022-09-10T06:20:28.716Z,6.82
2022-09-10T06:24:10.547Z,8.52
2022-09-10T06:27:52.338Z,5.20
2022-09-10T06:31:52.997Z,8.07
2022-09-10T06:35:35.491Z,3.40
2022-09-10T06:40:14.026Z,4.82
2022-09-10T06:43:55.818Z,3.70
2022-09-10T06:51:42.533Z,4.07
2022-09-10T06:55:24.283Z,3.13
2022-09-10T06:59:25.138Z,7.18
2022-09-10T07:03:07.037Z,4.38
2022-09-10T07:06:48.824Z,4.90
2022-09-10T07:11:09.410Z,2.33
2022-09-10T07:14:52.234Z,5.05
2022-09-10T07:18:34.020Z,2.53
2022-09-10T07:22:55.272Z,5.60
2022-09-10T07:26:37.310Z,5.25
2022-09-10T07:31:15.565Z,4.43
2022-09-10T07:34:57.818Z,2.72
2022-09-10T07:38:40.336Z,3.42
2022-09-10T07:42:45.909Z,6.65
2022-09-10T07:46:30.578Z,4.60
2022-09-10T07:50:55.196Z,5.85
2022-09-10T07:54:36.968Z,3.60
2022-09-10T07:58:18.714Z,7.05
2022-09-10T08:02:39.902Z,3.92
2022-09-10T08:06:21.617Z,3.22
2022-09-10T08:10:43.210Z,3.13
2022-09-10T08:14:25.183Z,1.65
2022-09-10T08:18:07.138Z,1.38
2022-09-10T08:22:45.667Z,4.25
2022-09-10T08:26:27.485Z,1.92
2022-09-10T08:31:05.665Z,4.40
2022-09-10T08:34:48.323Z,3.10
2022-09-10T08:38:31.779Z,5.87
2022-09-10T08:46:05.692Z,2.15
2022-09-10T08:49:53.091Z,2.85
2022-09-10T08:53:43.801Z,4.07
2022-09-10T08:57:38.710Z,3.50
2022-09-10T09:02:37.900Z,2.92
2022-09-10T09:06:54.763Z,3.20
2022-09-10T09:11:16.087Z,3.63
2022-09-10T09:15:18.430Z,2.22
2022-09-10T09:19:18.290Z,2.05
2022-09-10T09:23:19.544Z,3.20
2022-09-10T09:27:10.037Z,3.80
2022-09-10T09:30:55.989Z,1.85
2022-09-10T09:34:44.267Z,2.67
2022-09-10T09:38:37.385Z,2.33
2022-09-10T09:43:15.378Z,2.03
2022-09-10T09:46:57.121Z,1.15
2022-09-10T09:51:35.674Z,1.58
2022-09-10T09:55:33.575Z,2.40
2022-09-10T09:59:31.395Z,4.57
2022-09-10T10:03:27.149Z,1.55
2022-09-10T10:07:08.846Z,2.15
2022-09-10T10:11:13.880Z,1.70
2022-09-10T10:14:55.590Z,3.75
2022-09-10T10:18:37.302Z,0.80
2022-09-10T10:22:20.456Z,4.63
2022-09-10T10:26:16.019Z,1.00
2022-09-10T10:30:54.459Z,1.15
2022-09-10T10:34:53.158Z,0.95
2022-09-10T10:38:35.874Z,1.25
2022-09-10T10:43:14.288Z,1.83
2022-09-10T10:46:59.117Z,2.45
2022-09-10T10:51:10.030Z,0.47
2022-09-10T10:55:27.925Z,1.83
2022-09-10T10:59:16.947Z,0.93
2022-09-10T11:03:14.467Z,2.78
2022-09-10T11:07:03.538Z,2.88
2022-09-10T11:11:41.571Z,1.10
2022-09-10T11:15:30.320Z,1.00
2022-09-10T11:19:25.526Z,0.98
2022-09-10T11:23:45.207Z,1.13
2022-09-10T11:27:33.075Z,2.35
2022-09-10T11:32:11.367Z,1.42
2022-09-10T11:36:37.422Z,2.50
2022-09-10T11:40:31.037Z,1.30
2022-09-10T11:44:16.362Z,1.45
2022-09-10T11:48:35.605Z,4.22
2022-09-10T11:52:56.476Z,1.65
2022-09-10T11:57:00.284Z,1.48
2022-09-10T12:01:19.591Z,2.33
2022-09-10T12:05:27.691Z,1.50
2022-09-10T12:09:38.659Z,1.67
2022-09-10T12:13:20.536Z,2.47
2022-09-10T12:17:04.824Z,2.53
2022-09-10T12:21:25.250Z,1.63
2022-09-10T12:25:11.960Z,2.00
2022-09-10T12:28:53.707Z,2.45
2022-09-10T12:33:14.621Z,4.22
2022-09-10T12:36:59.140Z,2.20
2022-09-10T12:41:05.090Z,5.18
2022-09-10T12:44:47.114Z,2.72
2022-09-10T12:48:29.886Z,1.33
2022-09-10T12:52:41.143Z,2.58
2022-09-10T12:56:41.590Z,1.98
2022-09-10T13:00:24.408Z,1.27
2022-09-10T13:04:06.206Z,4.07
2022-09-10T13:07:49.318Z,2.28
2022-09-10T13:12:27.451Z,3.13
2022-09-10T13:16:26.534Z,2.35
2022-09-10T13:20:48.731Z,1.35
2022-09-10T13:24:34.210Z,0.77
2022-09-10T13:28:33.992Z,2.53
2022-09-10T13:33:12.218Z,1.58
2022-09-10T13:37:27.094Z,1.45
2022-09-10T13:41:26.205Z,1.02
2022-09-10T13:45:27.142Z,2.10
2022-09-10T13:49:19.357Z,0.88
2022-09-10T13:53:01.130Z,1.30
2022-09-10T13:56:43.789Z,2.63
2022-09-10T14:00:57.195Z,1.73
2022-09-10T14:04:43.119Z,2.00
2022-09-10T14:08:31.839Z,1.02
2022-09-10T14:12:52.506Z,1.55
2022-09-10T14:16:35.807Z,1.40
2022-09-10T14:24:40.394Z,1.70
2022-09-10T14:28:24.608Z,0.95
2022-09-10T14:32:46.329Z,2.20
2022-09-10T14:36:28.068Z,1.73
2022-09-10T14:41:08.839Z,2.30
2022-09-10T14:44:50.751Z,0.70
2022-09-10T14:48:38.500Z,0.60
2022-09-10T14:52:42.284Z,10.65
2022-09-10T14:56:38.409Z,3.70
2022-09-10T15:00:23.048Z,2.58
2022-09-10T15:04:05.003Z,0.90
2022-09-10T15:07:47.628Z,1.77
2022-09-10T15:11:31.677Z,3.75
2022-09-10T15:15:17.666Z,1.40
2022-09-10T15:19:00.515Z,1.67
2022-09-10T15:22:42.274Z,1.30
2022-09-10T15:26:25.039Z,1.52
2022-09-10T15:30:07.426Z,3.95
2022-09-10T15:33:49.435Z,1.67
2022-09-10T15:37:31.151Z,1.98
2022-09-10T15:41:34.507Z,3.17
2022-09-10T15:45:16.295Z,2.80
2022-09-10T15:48:59.572Z,1.77
2022-09-10T15:56:26.647Z,0.95
2022-09-10T16:00:48.026Z,0.88
2022-09-10T16:04:35.091Z,4.65
2022-09-10T16:08:17.624Z,1.63
2022-09-10T16:12:01.661Z,3.22
2022-09-10T16:15:43.418Z,0.52
2022-09-10T16:19:26.533Z,1.98
2022-09-10T16:23:08.251Z,2.17
2022-09-10T16:26:51.191Z,1.90
2022-09-10T16:30:33.145Z,5.07
2022-09-10T16:34:17.500Z,2.55
2022-09-10T16:38:00.551Z,2.40
2022-09-10T16:41:48.951Z,3.35
2022-09-10T16:45:30.789Z,3.60
2022-09-10T16:49:55.385Z,6.03
2022-09-10T16:53:38.738Z,4.47
2022-09-10T17:01:04.089Z,2.50
2022-09-10T17:04:45.827Z,1.75
2022-09-10T17:08:29.233Z,2.30
2022-09-10T17:16:22.925Z,1.55
2022-09-10T17:20:10.148Z,1.80
2022-09-10T17:23:52.299Z,2.58
2022-09-10T17:27:34.957Z,3.45
2022-09-10T17:31:37.766Z,2.28
2022-09-10T17:35:19.486Z,2.07
2022-09-10T17:39:01.275Z,3.17
2022-09-10T17:42:43.063Z,1.77
2022-09-10T17:46:25.313Z,1.38
2022-09-10T17:50:27.573Z,3.17
2022-09-10T17:54:09.407Z,3.05
2022-09-10T17:57:51.146Z,3.15
2022-09-10T18:02:11.575Z,4.30
2022-09-10T18:05:53.510Z,3.63
2022-09-10T18:10:31.545Z,3.22
2022-09-10T18:14:18.242Z,4.55
2022-09-10T18:18:01.402Z,4.65
2022-09-10T18:22:39.935Z,3.65
2022-09-10T18:26:23.219Z,6.07
2022-09-10T18:30:26.163Z,3.95
2022-09-10T18:34:09.365Z,6.20
2022-09-10T18:37:51.842Z,5.53
2022-09-10T18:41:39.784Z,6.93
2022-09-10T18:45:21.518Z,3.85
2022-09-10T18:49:26.592Z,3.78
2022-09-10T18:53:08.767Z,4.45
2022-09-10T18:56:50.978Z,8.82
2022-09-10T19:01:11.212Z,5.93
2022-09-10T19:05:11.840Z,7.65
2022-09-10T19:08:55.395Z,7.60
2022-09-10T19:13:34.490Z,8.82
2022-09-10T19:17:16.263Z,7.55
2022-09-10T19:21:07.148Z,6.78
2022-09-10T19:28:50.950Z,10.40
2022-09-10T19:33:13.052Z,13.55
2022-09-10T19:36:54.852Z,9.00
2022-09-10T19:41:24.377Z,10.25
2022-09-10T19:45:10.088Z,7.60
2022-09-10T19:48:53.188Z,11.05
2022-09-10T19:53:31.070Z,15.95
2022-09-10T19:57:12.821Z,10.30
2022-09-10T20:01:15.165Z,11.38
2022-09-10T20:04:56.878Z,9.13
2022-09-10T20:08:39.071Z,5.97
2022-09-10T20:13:17.346Z,6.78
2022-09-10T20:16:59.313Z,5.28
2022-09-10T20:21:12.326Z,10.10
2022-09-10T20:24:56.380Z,4.35
2022-09-10T20:28:38.399Z,7.00
2022-09-10T20:32:22.930Z,10.90
2022-09-10T20:36:06.103Z,8.93
2022-09-10T20:39:50.355Z,8.23
2022-09-10T20:43:32.607Z,6.70
2022-09-10T20:47:14.490Z,7.65
2022-09-10T20:51:52.534Z,6.45
2022-09-10T20:55:34.664Z,8.95
2022-09-10T20:59:17.768Z,9.43
2022-09-10T21:02:59.506Z,6.75
2022-09-10T21:06:41.308Z,6.13
2022-09-10T21:11:02.682Z,6.88
2022-09-10T21:14:44.402Z,5.90
2022-09-10T21:18:26.393Z,7.93
2022-09-10T21:23:04.434Z,6.50
2022-09-10T21:26:46.291Z,9.32
2022-09-10T21:30:46.886Z,8.60
2022-09-10T21:34:28.784Z,8.07
2022-09-10T21:38:10.486Z,9.25
2022-09-10T21:42:48.655Z,7.53
2022-09-10T21:46:30.913Z,9.93
2022-09-10T21:50:14.973Z,8.63
2022-09-10T21:53:56.933Z,11.77
2022-09-10T21:57:39.376Z,7.75
2022-09-10T22:02:00.587Z,7.78
2022-09-10T22:05:42.859Z,7.57
2022-09-10T22:09:26.346Z,10.75
2022-09-10T22:13:08.706Z,7.30
2022-09-10T22:16:50.720Z,7.88
2022-09-10T22:21:28.912Z,7.22
2022-09-10T22:25:10.766Z,8.35
2022-09-10T22:28:54.242Z,10.15
2022-09-10T22:32:57.204Z,10.35
2022-09-10T22:36:39.587Z,12.63
2022-09-10T22:40:40.206Z,7.30
2022-09-10T22:44:23.169Z,9.68
2022-09-10T22:48:05.133Z,12.23
2022-09-10T22:52:06.730Z,9.55
2022-09-10T22:55:48.989Z,13.52
2022-09-10T22:59:37.381Z,9.30
2022-09-10T23:03:20.604Z,8.95
2022-09-10T23:07:02.764Z,6.65
2022-09-10T23:11:16.470Z,6.60
2022-09-10T23:14:58.238Z,6.10
2022-09-10T23:18:40.556Z,11.35
2022-09-10T23:22:23.586Z,6.47
2022-09-10T23:26:09.374Z,11.10
2022-09-10T23:29:55.958Z,14.75
2022-09-10T23:33:37.664Z,12.18
2022-09-10T23:37:19.904Z,10.95
2022-09-10T23:41:46.509Z,9.93
2022-09-10T23:45:28.209Z,9.90
2022-09-10T23:50:06.457Z,9.02
2022-09-10T23:53:48.486Z,7.97
2022-09-10T23:57:30.273Z,8.38
